createdAt,value
2017-10-31T00:01:49.869Z,2.00
2017-10-31T00:04:18.140Z,1.80
2017-10-31T00:06:47.173Z,1.80
2017-10-31T00:09:15.456Z,2.33
2017-10-31T00:11:44.500Z,1.73
2017-10-31T00:14:12.820Z,1.87
2017-10-31T00:16:42.508Z,1.67
2017-10-31T00:19:10.785Z,2.33
2017-10-31T00:21:39.065Z,1.60
2017-10-31T00:24:07.341Z,2.07
2017-10-31T00:26:35.609Z,1.93
2017-10-31T00:29:03.885Z,1.80
2017-10-31T00:31:32.168Z,2.10
2017-10-31T00:34:00.449Z,1.23
2017-10-31T00:36:28.738Z,2.03
2017-10-31T00:38:57.027Z,1.33
2017-10-31T00:41:25.310Z,1.30
2017-10-31T00:43:54.913Z,2.33
2017-10-31T00:46:23.189Z,1.47
2017-10-31T00:48:52.232Z,1.60
2017-10-31T00:51:20.504Z,1.70
2017-10-31T00:53:48.780Z,1.87
2017-10-31T00:56:17.067Z,1.50
2017-10-31T00:58:45.354Z,1.47
2017-10-31T01:01:13.620Z,1.57
2017-10-31T01:03:41.891Z,1.40
2017-10-31T01:06:10.164Z,2.13
2017-10-31T01:08:38.431Z,1.53
2017-10-31T01:11:06.707Z,1.97
2017-10-31T01:13:34.991Z,1.60
2017-10-31T01:16:03.263Z,1.47
2017-10-31T01:18:31.538Z,1.90
2017-10-31T01:20:59.808Z,1.57
2017-10-31T01:23:28.089Z,2.17
2017-10-31T01:25:56.383Z,1.63
2017-10-31T01:28:24.662Z,1.23
2017-10-31T01:30:52.937Z,1.30
2017-10-31T01:33:21.213Z,1.67
2017-10-31T01:35:49.503Z,1.33
2017-10-31T01:38:17.773Z,1.70
2017-10-31T01:40:46.049Z,3.07
2017-10-31T01:43:14.324Z,2.40
2017-10-31T01:45:42.600Z,2.20
2017-10-31T01:48:10.867Z,2.37
2017-10-31T01:50:39.140Z,2.90
2017-10-31T01:53:07.442Z,3.23
2017-10-31T01:55:35.707Z,3.03
2017-10-31T01:58:03.991Z,2.53
2017-10-31T02:00:32.262Z,2.57
2017-10-31T02:03:00.529Z,2.90
2017-10-31T02:05:28.801Z,3.40
2017-10-31T02:07:57.092Z,2.90
2017-10-31T02:10:25.363Z,3.07
2017-10-31T02:12:53.637Z,2.50
2017-10-31T02:15:21.920Z,2.80
2017-10-31T02:17:50.201Z,2.73
2017-10-31T02:20:18.470Z,2.53
2017-10-31T02:22:46.749Z,3.00
2017-10-31T02:25:15.029Z,2.67
2017-10-31T02:27:43.278Z,2.60
2017-10-31T02:30:11.534Z,2.67
2017-10-31T02:32:39.807Z,2.60
2017-10-31T02:35:08.103Z,2.20
2017-10-31T02:37:36.359Z,2.37
2017-10-31T02:40:04.638Z,2.60
2017-10-31T02:42:32.915Z,2.93
2017-10-31T02:45:01.171Z,3.47
2017-10-31T02:47:29.446Z,2.47
2017-10-31T02:49:58.482Z,2.40
2017-10-31T02:52:26.765Z,2.63
2017-10-31T02:54:55.041Z,2.90
2017-10-31T02:57:23.323Z,2.13
2017-10-31T02:59:51.592Z,2.57
2017-10-31T03:02:19.864Z,2.97
2017-10-31T03:04:48.139Z,2.00
2017-10-31T03:07:16.404Z,2.80
2017-10-31T03:09:44.692Z,2.20
2017-10-31T03:12:12.969Z,3.10
2017-10-31T03:14:41.257Z,2.30
2017-10-31T03:17:09.528Z,2.80
2017-10-31T03:19:37.797Z,2.23
2017-10-31T03:22:06.064Z,2.40
2017-10-31T03:24:34.340Z,2.60
2017-10-31T03:27:02.621Z,2.63
2017-10-31T03:29:32.105Z,2.37
2017-10-31T03:32:00.379Z,2.40
2017-10-31T03:34:28.656Z,2.83
2017-10-31T03:36:56.929Z,2.67
2017-10-31T03:39:25.213Z,2.97
2017-10-31T03:41:53.485Z,2.63
2017-10-31T03:44:21.758Z,2.60
2017-10-31T03:46:50.037Z,2.30
2017-10-31T03:49:18.315Z,2.87
2017-10-31T03:51:46.589Z,2.43
2017-10-31T03:54:14.863Z,2.20
2017-10-31T03:56:43.140Z,2.20
2017-10-31T03:59:11.416Z,2.00
2017-10-31T04:01:39.691Z,2.53
2017-10-31T04:04:08.013Z,2.00
2017-10-31T04:06:36.305Z,2.70
2017-10-31T04:09:04.579Z,2.53
2017-10-31T04:11:32.861Z,3.27
2017-10-31T04:14:01.132Z,3.63
2017-10-31T04:16:29.413Z,2.50
2017-10-31T04:18:57.691Z,3.30
2017-10-31T04:21:25.963Z,3.20
2017-10-31T04:23:55.002Z,3.57
2017-10-31T04:26:23.273Z,3.13
2017-10-31T04:28:51.557Z,2.30
2017-10-31T04:31:20.733Z,2.97
2017-10-31T04:33:48.984Z,2.60
2017-10-31T04:36:17.249Z,3.27
2017-10-31T04:38:45.509Z,2.80
2017-10-31T04:41:13.765Z,2.60
2017-10-31T04:43:42.030Z,3.50
2017-10-31T04:46:10.304Z,3.00
2017-10-31T04:48:38.577Z,3.60
2017-10-31T04:51:07.673Z,3.37
2017-10-31T04:53:35.946Z,3.30
2017-10-31T04:56:04.222Z,3.60
2017-10-31T04:58:32.499Z,3.13
2017-10-31T05:01:00.873Z,3.17
2017-10-31T05:03:29.146Z,2.40
2017-10-31T05:05:57.417Z,2.93
2017-10-31T05:08:25.683Z,2.90
2017-10-31T05:10:53.959Z,3.00
2017-10-31T05:13:22.232Z,3.37
2017-10-31T05:15:51.268Z,2.53
2017-10-31T05:18:19.534Z,3.40
2017-10-31T05:20:47.805Z,3.00
2017-10-31T05:23:16.080Z,2.80
2017-10-31T05:25:44.356Z,3.30
2017-10-31T05:28:12.636Z,3.30
2017-10-31T05:30:40.913Z,2.90
2017-10-31T05:33:09.175Z,2.70
2017-10-31T05:35:37.442Z,3.17
2017-10-31T05:38:05.698Z,2.93
2017-10-31T05:40:34.736Z,2.50
2017-10-31T05:43:03.004Z,2.87
2017-10-31T05:45:31.279Z,4.63
2017-10-31T05:47:59.550Z,2.73
2017-10-31T05:50:27.817Z,2.40
2017-10-31T05:52:56.089Z,3.30
2017-10-31T05:55:24.359Z,3.60
2017-10-31T05:57:53.387Z,3.27
2017-10-31T06:00:21.656Z,2.37
2017-10-31T06:02:49.929Z,3.00
2017-10-31T06:05:18.207Z,2.57
2017-10-31T06:07:46.481Z,2.30
2017-10-31T06:10:14.757Z,2.30
2017-10-31T06:12:43.036Z,3.17
2017-10-31T06:15:11.320Z,2.50
2017-10-31T06:17:39.589Z,2.87
2017-10-31T06:20:07.862Z,2.80
2017-10-31T06:22:41.485Z,3.47
2017-10-31T06:25:15.278Z,2.50
2017-10-31T06:27:49.013Z,2.93
2017-10-31T06:30:22.805Z,2.70
2017-10-31T06:32:51.072Z,2.73
2017-10-31T06:35:19.350Z,3.00
2017-10-31T06:37:47.619Z,3.10
2017-10-31T06:40:15.888Z,2.83
2017-10-31T06:42:44.165Z,2.43
2017-10-31T06:45:12.434Z,2.57
2017-10-31T06:47:40.706Z,2.73
2017-10-31T06:50:08.980Z,2.73
2017-10-31T06:52:37.260Z,2.17
2017-10-31T06:55:05.540Z,2.87
2017-10-31T06:57:33.816Z,3.27
2017-10-31T07:00:02.096Z,3.03
2017-10-31T07:02:30.369Z,2.30
2017-10-31T07:04:58.641Z,2.50
2017-10-31T07:07:26.919Z,2.30
2017-10-31T07:09:55.188Z,3.67
2017-10-31T07:12:23.464Z,3.60
2017-10-31T07:14:51.768Z,2.90
2017-10-31T07:17:20.048Z,3.20
2017-10-31T07:19:48.320Z,3.90
2017-10-31T07:22:16.596Z,4.77
2017-10-31T07:24:44.890Z,3.33
2017-10-31T07:27:13.160Z,4.13
2017-10-31T07:29:41.440Z,3.60
2017-10-31T07:32:09.729Z,3.10
2017-10-31T07:34:37.996Z,2.30
2017-10-31T07:37:06.276Z,3.10
2017-10-31T07:39:34.621Z,3.73
2017-10-31T07:42:02.917Z,2.87
2017-10-31T07:44:31.191Z,2.90
2017-10-31T07:46:59.460Z,2.77
2017-10-31T07:49:27.729Z,2.77
2017-10-31T07:51:56.005Z,2.50
2017-10-31T07:54:24.276Z,3.07
2017-10-31T07:56:52.548Z,2.70
2017-10-31T07:59:20.816Z,3.10
2017-10-31T08:01:49.090Z,3.20
2017-10-31T08:04:17.371Z,3.40
2017-10-31T08:06:46.174Z,2.70
2017-10-31T08:09:15.392Z,3.20
2017-10-31T08:11:43.673Z,3.20
2017-10-31T08:14:11.949Z,3.90
2017-10-31T08:16:40.240Z,4.37
2017-10-31T08:19:08.520Z,3.00
2017-10-31T08:21:36.819Z,4.00
2017-10-31T08:24:05.862Z,3.50
2017-10-31T08:26:34.164Z,5.50
2017-10-31T08:29:02.440Z,7.10
2017-10-31T08:31:30.719Z,4.63
2017-10-31T08:33:58.986Z,4.20
2017-10-31T08:36:27.247Z,4.10
2017-10-31T08:38:56.281Z,5.40
2017-10-31T08:41:24.559Z,4.40
2017-10-31T08:43:53.591Z,5.10
2017-10-31T08:46:21.864Z,4.70
2017-10-31T08:48:50.145Z,5.10
2017-10-31T08:51:18.419Z,5.30
2017-10-31T08:53:46.695Z,6.37
2017-10-31T08:56:14.974Z,6.67
2017-10-31T08:58:43.297Z,6.97
2017-10-31T09:01:11.576Z,6.70
2017-10-31T09:03:39.855Z,7.57
2017-10-31T09:06:08.892Z,8.03
2017-10-31T09:08:37.169Z,7.47
2017-10-31T09:11:05.444Z,7.60
2017-10-31T09:13:33.724Z,8.23
2017-10-31T09:16:01.996Z,8.80
2017-10-31T09:18:30.299Z,7.70
2017-10-31T09:20:58.579Z,8.50
2017-10-31T09:23:26.858Z,7.43
2017-10-31T09:25:55.139Z,8.80
2017-10-31T09:28:23.421Z,10.00
2017-10-31T09:30:51.707Z,8.80
2017-10-31T09:33:20.748Z,8.10
2017-10-31T09:35:49.023Z,8.50
2017-10-31T09:38:17.296Z,8.47
2017-10-31T09:40:45.580Z,9.60
2017-10-31T09:43:13.861Z,8.53
2017-10-31T09:45:42.175Z,9.50
2017-10-31T09:48:10.463Z,8.13
2017-10-31T09:50:38.735Z,8.20
2017-10-31T09:53:07.763Z,8.67
2017-10-31T09:55:36.038Z,9.20
2017-10-31T09:58:04.314Z,8.63
2017-10-31T10:00:32.593Z,9.30
2017-10-31T10:03:00.868Z,9.53
2017-10-31T10:05:29.146Z,8.87
2017-10-31T10:07:57.423Z,9.77
2017-10-31T10:10:25.697Z,10.03
2017-10-31T10:12:53.972Z,9.30
2017-10-31T10:15:22.248Z,8.67
2017-10-31T10:17:50.523Z,8.80
2017-10-31T10:20:18.801Z,8.07
2017-10-31T10:22:47.096Z,7.83
2017-10-31T10:25:15.364Z,6.90
2017-10-31T10:27:43.671Z,7.90
2017-10-31T10:30:11.944Z,6.67
2017-10-31T10:32:40.228Z,7.47
2017-10-31T10:35:08.501Z,7.17
2017-10-31T10:37:36.775Z,6.40
2017-10-31T10:40:05.037Z,7.30
2017-10-31T10:42:33.308Z,7.03
2017-10-31T10:45:01.583Z,6.47
2017-10-31T10:47:29.877Z,8.43
2017-10-31T10:49:58.156Z,6.33
2017-10-31T10:52:26.453Z,6.53
2017-10-31T10:54:54.771Z,6.00
2017-10-31T10:57:23.137Z,6.07
2017-10-31T10:59:52.204Z,5.90
2017-10-31T11:02:20.827Z,5.20
2017-10-31T11:04:49.114Z,5.60
2017-10-31T11:07:18.317Z,5.70
2017-10-31T11:09:46.602Z,5.53
2017-10-31T11:12:14.876Z,6.03
2017-10-31T11:14:43.148Z,6.40
2017-10-31T11:17:11.432Z,5.60
2017-10-31T11:19:39.705Z,6.17
2017-10-31T11:22:07.989Z,5.83
2017-10-31T11:24:36.256Z,5.70
2017-10-31T11:27:04.528Z,6.80
2017-10-31T11:29:32.805Z,6.10
2017-10-31T11:32:01.092Z,5.47
2017-10-31T11:34:29.369Z,5.13
2017-10-31T11:36:57.644Z,5.50
2017-10-31T11:39:25.912Z,5.90
2017-10-31T11:41:54.180Z,5.53
2017-10-31T11:44:22.456Z,5.70
2017-10-31T11:46:50.740Z,5.50
2017-10-31T11:49:19.124Z,5.47
2017-10-31T11:51:47.452Z,6.40
2017-10-31T11:54:16.493Z,4.80
2017-10-31T11:56:44.772Z,5.10
2017-10-31T11:59:13.056Z,5.70
2017-10-31T12:01:41.993Z,4.70
2017-10-31T12:04:10.300Z,4.60
2017-10-31T12:06:38.584Z,5.90
2017-10-31T12:09:06.876Z,5.40
2017-10-31T12:11:35.162Z,5.93
2017-10-31T12:14:03.452Z,5.73
2017-10-31T12:16:31.737Z,5.10
2017-10-31T12:19:00.018Z,5.10
2017-10-31T12:21:29.072Z,5.20
2017-10-31T12:23:58.013Z,5.13
2017-10-31T12:26:26.393Z,5.70
2017-10-31T12:28:54.672Z,5.20
2017-10-31T12:31:22.960Z,5.60
2017-10-31T12:33:51.235Z,5.63
2017-10-31T12:36:19.524Z,5.70
2017-10-31T12:38:47.815Z,4.50
2017-10-31T12:41:16.101Z,4.97
2017-10-31T12:43:44.837Z,5.40
2017-10-31T12:46:13.113Z,4.57
2017-10-31T12:48:41.389Z,5.67
2017-10-31T12:51:09.666Z,5.53
2017-10-31T12:53:37.941Z,5.73
2017-10-31T12:56:06.213Z,4.97
2017-10-31T12:58:34.528Z,5.30
2017-10-31T13:01:02.801Z,5.67
2017-10-31T13:03:31.082Z,5.33
2017-10-31T13:05:59.354Z,5.07
2017-10-31T13:08:27.675Z,4.80
2017-10-31T13:10:55.981Z,4.90
2017-10-31T13:13:24.255Z,4.67
2017-10-31T13:15:52.618Z,5.23
2017-10-31T13:18:21.102Z,4.00
2017-10-31T13:20:49.491Z,4.77
2017-10-31T13:23:17.785Z,4.67
2017-10-31T13:25:46.058Z,4.30
2017-10-31T13:28:14.669Z,4.93
2017-10-31T13:30:43.314Z,4.53
2017-10-31T13:33:12.258Z,4.30
2017-10-31T13:35:42.562Z,4.30
2017-10-31T13:38:12.399Z,4.30
2017-10-31T13:40:42.385Z,4.30
2017-10-31T13:43:11.761Z,4.50
2017-10-31T13:45:40.354Z,4.50
2017-10-31T13:48:09.725Z,5.00
2017-10-31T13:50:38.696Z,5.27
2017-10-31T13:53:07.062Z,4.30
2017-10-31T13:55:35.346Z,4.40
2017-10-31T13:58:03.677Z,4.90
2017-10-31T14:00:32.290Z,4.40
2017-10-31T14:03:00.902Z,4.37
2017-10-31T14:05:29.205Z,4.70
2017-10-31T14:07:57.792Z,4.73
2017-10-31T14:10:26.684Z,4.70
2017-10-31T14:12:55.246Z,4.90
2017-10-31T14:15:23.583Z,4.90
2017-10-31T14:17:51.966Z,5.93
2017-10-31T14:20:20.631Z,4.50
2017-10-31T14:22:49.027Z,3.70
2017-10-31T14:25:17.296Z,4.10
2017-10-31T14:27:45.601Z,4.13
2017-10-31T14:30:13.904Z,3.67
2017-10-31T14:32:42.221Z,4.27
2017-10-31T14:35:10.536Z,3.83
2017-10-31T14:37:38.876Z,3.40
2017-10-31T14:40:07.393Z,3.50
2017-10-31T14:42:35.705Z,4.00
2017-10-31T14:45:04.849Z,4.67
2017-10-31T14:47:33.160Z,3.47
2017-10-31T14:50:01.594Z,2.93
2017-10-31T14:52:29.913Z,2.90
2017-10-31T14:54:58.210Z,2.97
2017-10-31T14:57:26.517Z,2.87
2017-10-31T14:59:54.788Z,3.07
2017-10-31T15:02:23.069Z,2.53
2017-10-31T15:04:51.366Z,2.20
2017-10-31T15:07:19.649Z,2.30
2017-10-31T15:09:47.920Z,2.17
2017-10-31T15:12:16.236Z,1.90
2017-10-31T15:14:45.266Z,2.20
2017-10-31T15:17:13.560Z,2.70
2017-10-31T15:19:41.890Z,2.73
2017-10-31T15:22:11.039Z,2.50
2017-10-31T15:24:39.380Z,2.10
2017-10-31T15:27:07.672Z,1.97
2017-10-31T15:29:35.983Z,2.50
2017-10-31T15:32:04.279Z,2.40
2017-10-31T15:34:32.567Z,1.80
2017-10-31T15:37:01.634Z,2.70
2017-10-31T15:39:29.960Z,2.20
2017-10-31T15:41:58.254Z,1.90
2017-10-31T15:44:27.717Z,2.63
2017-10-31T15:46:56.009Z,2.27
2017-10-31T15:49:24.300Z,2.13
2017-10-31T15:51:52.625Z,2.30
2017-10-31T15:54:20.932Z,2.10
2017-10-31T15:56:49.969Z,2.40
2017-10-31T15:59:18.254Z,2.00
2017-10-31T16:01:46.532Z,2.20
2017-10-31T16:04:14.876Z,2.40
2017-10-31T16:06:44.545Z,2.67
2017-10-31T16:09:13.767Z,2.27
2017-10-31T16:11:42.048Z,2.73
2017-10-31T16:14:10.361Z,2.90
2017-10-31T16:16:38.635Z,2.70
2017-10-31T16:19:06.927Z,2.37
2017-10-31T16:21:35.221Z,1.80
2017-10-31T16:24:03.492Z,2.07
2017-10-31T16:26:31.777Z,1.70
2017-10-31T16:29:00.057Z,1.73
2017-10-31T16:31:28.349Z,2.57
2017-10-31T16:33:57.404Z,1.63
2017-10-31T16:36:25.687Z,1.60
2017-10-31T16:38:53.969Z,1.90
2017-10-31T16:41:23.107Z,1.43
2017-10-31T16:43:51.468Z,1.90
2017-10-31T16:46:20.513Z,1.70
2017-10-31T16:48:48.793Z,1.67
2017-10-31T16:51:17.068Z,2.10
2017-10-31T16:53:45.827Z,2.10
2017-10-31T16:56:14.103Z,1.83
2017-10-31T16:58:42.379Z,1.57
2017-10-31T17:01:10.651Z,2.13
2017-10-31T17:03:38.927Z,1.67
2017-10-31T17:06:07.206Z,1.57
2017-10-31T17:08:35.485Z,1.63
2017-10-31T17:11:03.811Z,1.90
2017-10-31T17:13:32.090Z,1.80
2017-10-31T17:16:00.415Z,1.87
2017-10-31T17:18:29.036Z,2.43
2017-10-31T17:20:57.349Z,2.80
2017-10-31T17:23:25.629Z,2.90
2017-10-31T17:25:54.702Z,1.83
2017-10-31T17:28:23.078Z,2.17
2017-10-31T17:30:51.441Z,2.27
2017-10-31T17:33:21.455Z,3.03
2017-10-31T17:35:49.876Z,2.13
2017-10-31T17:38:18.294Z,2.10
2017-10-31T17:40:46.885Z,2.17
2017-10-31T17:43:15.575Z,1.73
2017-10-31T17:45:44.830Z,2.10
2017-10-31T17:48:13.525Z,2.00
2017-10-31T17:50:42.005Z,2.23
2017-10-31T17:53:10.533Z,2.00
2017-10-31T17:55:38.898Z,2.20
2017-10-31T17:58:07.307Z,2.33
2017-10-31T18:00:36.657Z,1.90
2017-10-31T18:03:05.304Z,2.07
2017-10-31T18:05:33.626Z,2.43
2017-10-31T18:08:02.134Z,3.93
2017-10-31T18:10:31.389Z,1.80
2017-10-31T18:13:00.496Z,1.90
2017-10-31T18:15:30.864Z,1.93
2017-10-31T18:18:00.613Z,2.63
2017-10-31T18:20:29.993Z,1.43
2017-10-31T18:22:58.998Z,1.60
2017-10-31T18:25:28.752Z,1.80
2017-10-31T18:27:58.505Z,1.90
2017-10-31T18:30:28.171Z,2.03
2017-10-31T18:32:58.775Z,1.80
2017-10-31T18:35:29.073Z,2.27
2017-10-31T18:37:58.901Z,4.10
2017-10-31T18:40:29.269Z,2.87
2017-10-31T18:42:58.851Z,2.23
2017-10-31T18:45:28.704Z,2.17
2017-10-31T18:47:58.508Z,2.37
2017-10-31T18:50:29.202Z,2.13
2017-10-31T18:52:59.020Z,1.80
2017-10-31T18:55:28.816Z,1.83
2017-10-31T18:57:59.009Z,2.70
2017-10-31T19:00:28.756Z,2.30
2017-10-31T19:02:59.237Z,2.10
2017-10-31T19:05:29.020Z,1.70
2017-10-31T19:07:58.796Z,2.17
2017-10-31T19:10:29.388Z,1.73
2017-10-31T19:12:59.219Z,1.97
2017-10-31T19:15:29.010Z,1.80
2017-10-31T19:17:58.844Z,4.27
2017-10-31T19:20:28.716Z,3.40
2017-10-31T19:22:58.568Z,2.50
2017-10-31T19:25:28.550Z,2.57
2017-10-31T19:27:58.454Z,1.97
2017-10-31T19:30:28.452Z,2.63
2017-10-31T19:32:58.303Z,1.77
2017-10-31T19:35:28.305Z,1.90
2017-10-31T19:37:58.112Z,2.10
2017-10-31T19:40:27.912Z,2.23
2017-10-31T19:42:57.651Z,2.50
2017-10-31T19:45:27.552Z,2.20
2017-10-31T19:47:57.308Z,3.00
2017-10-31T19:50:28.790Z,3.00
2017-10-31T19:52:58.645Z,2.43
2017-10-31T19:55:28.563Z,3.00
2017-10-31T19:57:58.439Z,2.60
2017-10-31T20:00:28.375Z,2.60
2017-10-31T20:02:58.245Z,2.60
2017-10-31T20:05:28.617Z,2.43
2017-10-31T20:07:58.469Z,2.07
2017-10-31T20:10:29.249Z,2.33
2017-10-31T20:12:59.123Z,2.70
2017-10-31T20:15:28.936Z,2.50
2017-10-31T20:18:01.030Z,3.00
2017-10-31T20:20:30.915Z,2.77
2017-10-31T20:23:01.531Z,2.83
2017-10-31T20:25:31.452Z,4.00
2017-10-31T20:28:01.363Z,4.60
2017-10-31T20:30:31.939Z,3.20
2017-10-31T20:33:01.848Z,2.50
2017-10-31T20:35:31.617Z,2.57
2017-10-31T20:38:01.822Z,2.90
2017-10-31T20:40:32.371Z,2.47
2017-10-31T20:43:02.199Z,3.30
2017-10-31T20:45:32.235Z,3.07
2017-10-31T20:48:02.008Z,2.73
2017-10-31T20:50:31.820Z,3.53
2017-10-31T20:53:01.774Z,3.07
2017-10-31T20:55:31.766Z,2.60
2017-10-31T20:58:01.526Z,3.00
2017-10-31T21:00:31.297Z,3.43
2017-10-31T21:03:01.131Z,2.83
2017-10-31T21:05:30.961Z,2.67
2017-10-31T21:08:00.822Z,2.50
2017-10-31T21:10:30.556Z,2.23
2017-10-31T21:13:00.465Z,3.20
2017-10-31T21:15:30.280Z,2.60
2017-10-31T21:18:00.763Z,2.13
2017-10-31T21:20:30.574Z,2.50
2017-10-31T21:23:00.383Z,2.43
2017-10-31T21:25:30.312Z,2.30
2017-10-31T21:28:00.188Z,2.37
2017-10-31T21:30:30.005Z,2.33
2017-10-31T21:32:59.797Z,2.87
2017-10-31T21:35:29.657Z,3.30
2017-10-31T21:37:59.422Z,2.53
2017-10-31T21:40:29.182Z,2.97
2017-10-31T21:42:59.025Z,3.03
2017-10-31T21:45:28.805Z,2.97
2017-10-31T21:47:58.531Z,2.53
2017-10-31T21:50:27.995Z,2.80
2017-10-31T21:52:57.181Z,3.23
2017-10-31T21:55:26.471Z,2.20
2017-10-31T21:57:54.824Z,2.30
2017-10-31T22:00:23.374Z,2.60
2017-10-31T22:02:51.840Z,3.30
2017-10-31T22:05:20.152Z,2.97
2017-10-31T22:07:48.480Z,3.13
2017-10-31T22:10:16.777Z,2.47
2017-10-31T22:12:45.069Z,3.57
2017-10-31T22:15:13.341Z,3.93
2017-10-31T22:17:41.616Z,2.90
2017-10-31T22:20:09.900Z,2.80
2017-10-31T22:22:38.178Z,3.13
2017-10-31T22:25:06.452Z,2.80
2017-10-31T22:27:35.502Z,3.30
2017-10-31T22:30:03.792Z,2.67
2017-10-31T22:32:32.069Z,2.40
2017-10-31T22:35:00.341Z,3.50
2017-10-31T22:37:28.608Z,3.40
2017-10-31T22:39:56.876Z,2.77
2017-10-31T22:42:25.180Z,2.80
2017-10-31T22:44:53.458Z,3.30
2017-10-31T22:47:21.820Z,3.07
2017-10-31T22:49:50.085Z,2.90
2017-10-31T22:52:18.364Z,3.00
2017-10-31T22:54:46.638Z,3.50
2017-10-31T22:57:14.911Z,2.87
2017-10-31T22:59:43.191Z,3.20
2017-10-31T23:02:11.460Z,3.37
2017-10-31T23:04:39.739Z,3.10
2017-10-31T23:07:08.012Z,4.17
2017-10-31T23:09:36.301Z,4.07
2017-10-31T23:12:04.581Z,3.50
2017-10-31T23:14:32.869Z,3.67
2017-10-31T23:17:01.156Z,3.70
2017-10-31T23:19:29.450Z,2.77
2017-10-31T23:21:57.735Z,3.43
2017-10-31T23:24:26.020Z,4.03
2017-10-31T23:26:54.304Z,4.57
2017-10-31T23:29:22.980Z,3.53
2017-10-31T23:31:51.258Z,3.07
2017-10-31T23:34:19.535Z,3.30
2017-10-31T23:36:48.848Z,3.33
2017-10-31T23:39:18.108Z,3.63
2017-10-31T23:41:46.389Z,4.10
2017-10-31T23:44:14.709Z,3.63
2017-10-31T23:46:43.796Z,3.83
2017-10-31T23:49:12.079Z,4.20
2017-10-31T23:51:40.361Z,3.17
2017-10-31T23:54:08.644Z,4.10
2017-10-31T23:56:36.925Z,4.07
2017-10-31T23:59:05.201Z,3.70
